createdAt,value
2023-04-21T00:01:26.441Z,12.13
2023-04-21T00:03:53.518Z,12.01
2023-04-21T00:06:23.119Z,11.94
2023-04-21T00:08:50.599Z,11.91
2023-04-21T00:11:17.666Z,11.63
2023-04-21T00:13:45.044Z,11.93
2023-04-21T00:16:12.399Z,12.04
2023-04-21T00:18:39.369Z,11.63
2023-04-21T00:21:06.463Z,12.07
2023-04-21T00:23:33.481Z,12.07
2023-04-21T00:26:03.160Z,12.05
2023-04-21T00:28:30.302Z,11.92
2023-04-21T00:30:57.400Z,12.09
2023-04-21T00:33:24.491Z,12.25
2023-04-21T00:35:51.607Z,12.23
2023-04-21T00:38:18.489Z,12.19
2023-04-21T00:40:45.560Z,12.30
2023-04-21T00:43:12.431Z,12.32
2023-04-21T00:45:39.350Z,12.14
2023-04-21T00:48:06.570Z,12.02
2023-04-21T00:50:34.061Z,12.07
2023-04-21T00:53:01.088Z,12.04
2023-04-21T00:55:29.197Z,12.15
2023-04-21T00:57:56.820Z,12.05
2023-04-21T01:00:23.873Z,12.09
2023-04-21T01:02:51.243Z,11.54
2023-04-21T01:05:18.560Z,11.87
2023-04-21T01:07:46.060Z,12.00
2023-04-21T01:10:13.014Z,11.88
2023-04-21T01:12:45.110Z,11.86
2023-04-21T01:15:17.585Z,11.97
2023-04-21T01:17:45.584Z,12.11
2023-04-21T01:20:14.710Z,12.16
2023-04-21T01:22:44.776Z,12.11
2023-04-21T01:25:11.768Z,12.17
2023-04-21T01:27:38.722Z,12.09
2023-04-21T01:30:07.681Z,12.27
2023-04-21T01:32:34.667Z,11.99
2023-04-21T01:35:02.040Z,11.96
2023-04-21T01:37:31.581Z,11.94
2023-04-21T01:40:00.707Z,12.02
2023-04-21T01:42:29.655Z,11.79
2023-04-21T01:44:57.173Z,11.91
2023-04-21T01:47:25.694Z,11.87
2023-04-21T01:49:53.319Z,11.74
2023-04-21T01:52:20.738Z,11.67
2023-04-21T01:54:47.934Z,11.74
2023-04-21T01:57:15.593Z,11.60
2023-04-21T01:59:42.634Z,11.38
2023-04-21T02:02:10.295Z,11.40
2023-04-21T02:04:37.543Z,11.19
2023-04-21T02:07:04.531Z,10.21
2023-04-21T02:09:32.327Z,10.67
2023-04-21T02:11:59.289Z,10.98
2023-04-21T02:14:26.502Z,11.12
2023-04-21T02:16:53.614Z,10.74
2023-04-21T02:19:20.893Z,10.83
2023-04-21T02:21:48.106Z,10.10
2023-04-21T02:24:15.030Z,10.62
2023-04-21T02:26:41.929Z,10.62
2023-04-21T02:29:08.867Z,10.71
2023-04-21T02:31:46.119Z,10.80
2023-04-21T02:34:21.638Z,10.84
2023-04-21T02:36:48.820Z,10.71
2023-04-21T02:39:15.677Z,10.52
2023-04-21T02:41:42.603Z,10.44
2023-04-21T02:44:09.544Z,10.65
2023-04-21T02:46:36.470Z,10.63
2023-04-21T02:49:03.483Z,10.54
2023-04-21T02:51:30.382Z,10.63
2023-04-21T02:53:57.653Z,10.52
2023-04-21T02:56:24.579Z,10.58
2023-04-21T02:58:51.463Z,10.65
2023-04-21T03:01:18.538Z,10.82
2023-04-21T03:03:46.391Z,10.59
2023-04-21T03:06:13.310Z,10.75
2023-04-21T03:08:40.332Z,10.65
2023-04-21T03:11:07.159Z,10.01
2023-04-21T03:13:34.087Z,10.52
2023-04-21T03:16:01.166Z,10.53
2023-04-21T03:18:28.438Z,10.65
2023-04-21T03:21:00.354Z,10.38
2023-04-21T03:23:27.233Z,10.43
2023-04-21T03:25:54.217Z,10.47
2023-04-21T03:28:21.169Z,10.38
2023-04-21T03:30:48.092Z,10.56
2023-04-21T03:33:15.069Z,10.59
2023-04-21T03:35:41.981Z,10.58
2023-04-21T03:38:08.943Z,10.57
2023-04-21T03:40:35.861Z,10.48
2023-04-21T03:43:02.823Z,10.72
2023-04-21T03:45:29.713Z,10.73
2023-04-21T03:47:57.193Z,10.72
2023-04-21T03:50:24.252Z,10.20
2023-04-21T03:52:51.173Z,10.74
2023-04-21T03:55:18.151Z,10.76
2023-04-21T03:57:45.126Z,10.46
2023-04-21T04:00:13.100Z,10.73
2023-04-21T04:02:40.908Z,10.67
2023-04-21T04:05:08.725Z,10.32
2023-04-21T04:07:35.886Z,10.33
2023-04-21T04:10:02.923Z,10.50
2023-04-21T04:12:30.092Z,10.59
2023-04-21T04:14:57.028Z,10.69
2023-04-21T04:17:24.016Z,10.62
2023-04-21T04:19:50.983Z,10.90
2023-04-21T04:22:17.876Z,10.52
2023-04-21T04:24:45.363Z,10.49
2023-04-21T04:27:14.378Z,10.34
2023-04-21T04:29:41.499Z,10.71
2023-04-21T04:32:11.324Z,10.76
2023-04-21T04:34:38.434Z,10.71
2023-04-21T04:37:05.391Z,10.59
2023-04-21T04:39:32.692Z,10.93
2023-04-21T04:41:59.982Z,10.95
2023-04-21T04:44:27.027Z,10.87
2023-04-21T04:46:54.492Z,10.43
2023-04-21T04:49:23.581Z,10.57
2023-04-21T04:51:51.198Z,10.53
2023-04-21T04:54:18.595Z,10.77
2023-04-21T04:56:46.280Z,10.50
2023-04-21T04:59:13.271Z,10.90
2023-04-21T05:01:42.155Z,10.89
2023-04-21T05:04:09.492Z,10.99
2023-04-21T05:06:36.620Z,11.05
2023-04-21T05:09:05.179Z,10.57
2023-04-21T05:11:32.281Z,10.41
2023-04-21T05:13:59.607Z,10.83
2023-04-21T05:16:26.705Z,10.96
2023-04-21T05:18:54.327Z,10.47
2023-04-21T05:21:28.949Z,10.69
2023-04-21T05:23:57.470Z,10.77
2023-04-21T05:26:25.997Z,11.20
2023-04-21T05:28:53.385Z,10.85
2023-04-21T05:31:20.439Z,10.54
2023-04-21T05:33:47.383Z,11.15
2023-04-21T05:36:14.391Z,10.91
2023-04-21T05:38:41.296Z,10.76
2023-04-21T05:41:08.711Z,11.35
2023-04-21T05:43:35.742Z,11.23
2023-04-21T05:46:04.199Z,11.68
2023-04-21T05:48:31.272Z,11.69
2023-04-21T05:50:58.298Z,11.89
2023-04-21T05:53:25.372Z,12.21
2023-04-21T05:55:52.422Z,12.46
2023-04-21T05:58:19.422Z,12.66
2023-04-21T06:00:48.954Z,12.89
2023-04-21T06:03:16.505Z,13.13
2023-04-21T06:05:43.676Z,13.25
2023-04-21T06:08:10.618Z,13.67
2023-04-21T06:10:37.795Z,14.08
2023-04-21T06:13:04.740Z,14.06
2023-04-21T06:15:31.732Z,14.74
2023-04-21T06:17:58.853Z,14.64
2023-04-21T06:20:29.087Z,14.84
2023-04-21T06:22:58.445Z,14.71
2023-04-21T06:25:25.481Z,14.87
2023-04-21T06:27:52.708Z,15.23
2023-04-21T06:30:19.685Z,16.03
2023-04-21T06:32:47.999Z,16.62
2023-04-21T06:35:15.533Z,16.66
2023-04-21T06:37:42.535Z,16.90
2023-04-21T06:40:10.017Z,17.05
2023-04-21T06:42:36.988Z,17.43
2023-04-21T06:45:04.260Z,17.87
2023-04-21T06:47:31.291Z,18.46
2023-04-21T06:49:58.248Z,19.31
2023-04-21T06:52:25.241Z,19.84
2023-04-21T06:54:52.338Z,21.06
2023-04-21T06:57:19.438Z,21.79
2023-04-21T06:59:46.398Z,22.06
2023-04-21T07:02:13.331Z,22.49
2023-04-21T07:04:40.419Z,20.56
2023-04-21T07:07:07.497Z,18.89
2023-04-21T07:09:34.528Z,18.88
2023-04-21T07:12:02.950Z,18.28
2023-04-21T07:14:30.207Z,18.14
2023-04-21T07:16:57.654Z,17.86
2023-04-21T07:19:24.670Z,17.09
2023-04-21T07:21:51.678Z,17.28
2023-04-21T07:24:18.715Z,17.67
2023-04-21T07:26:45.783Z,17.78
2023-04-21T07:29:18.914Z,17.43
2023-04-21T07:31:48.498Z,17.54
2023-04-21T07:34:17.624Z,17.26
2023-04-21T07:36:47.223Z,17.38
2023-04-21T07:39:14.283Z,17.51
2023-04-21T07:41:41.247Z,17.74
2023-04-21T07:44:08.259Z,18.08
2023-04-21T07:46:35.332Z,18.00
2023-04-21T07:49:17.985Z,18.27
2023-04-21T07:51:45.300Z,18.28
2023-04-21T07:54:12.975Z,18.80
2023-04-21T07:56:40.413Z,18.81
2023-04-21T07:59:07.557Z,18.40
2023-04-21T08:01:34.888Z,18.89
2023-04-21T08:04:02.066Z,18.73
2023-04-21T08:06:32.238Z,19.48
2023-04-21T08:09:00.021Z,20.12
2023-04-21T08:11:28.798Z,19.92
2023-04-21T08:13:55.804Z,19.62
2023-04-21T08:16:22.903Z,19.37
2023-04-21T08:18:50.023Z,19.76
2023-04-21T08:21:17.023Z,19.26
2023-04-21T08:23:44.049Z,19.47
2023-04-21T08:26:12.590Z,19.90
2023-04-21T08:28:39.930Z,20.12
2023-04-21T08:31:07.020Z,19.78
2023-04-21T08:33:34.114Z,20.55
2023-04-21T08:36:07.500Z,20.71
2023-04-21T08:38:39.722Z,20.07
2023-04-21T08:41:08.669Z,20.39
2023-04-21T08:43:35.650Z,20.35
2023-04-21T08:46:07.281Z,20.31
2023-04-21T08:48:38.638Z,20.28
2023-04-21T08:51:12.595Z,20.59
2023-04-21T08:53:41.919Z,20.25
2023-04-21T08:56:11.627Z,19.25
2023-04-21T08:58:39.187Z,20.28
2023-04-21T09:01:06.530Z,20.47
2023-04-21T09:03:33.769Z,19.51
2023-04-21T09:06:03.455Z,20.52
2023-04-21T09:08:31.301Z,20.49
2023-04-21T09:11:00.098Z,20.99
2023-04-21T09:13:45.274Z,20.49
2023-04-21T09:16:21.781Z,21.43
2023-04-21T09:18:50.364Z,21.73
2023-04-21T09:21:19.311Z,21.73
2023-04-21T09:23:51.114Z,22.56
2023-04-21T09:26:19.802Z,21.30
2023-04-21T09:28:49.051Z,21.77
2023-04-21T09:31:21.780Z,21.75
2023-04-21T09:34:00.440Z,23.08
2023-04-21T09:36:32.286Z,23.54
2023-04-21T09:41:33.656Z,25.04
2023-04-21T09:44:05.110Z,25.83
2023-04-21T09:46:37.164Z,25.91
2023-04-21T09:49:08.804Z,24.65
2023-04-21T09:56:55.113Z,25.14
2023-04-21T09:59:29.644Z,26.00
2023-04-21T10:02:00.298Z,26.86
2023-04-21T10:04:31.820Z,27.04
2023-04-21T10:07:00.815Z,27.29
2023-04-21T10:09:51.329Z,27.50
2023-04-21T10:12:18.661Z,27.40
2023-04-21T10:14:45.811Z,24.90
2023-04-21T10:17:13.089Z,23.52
2023-04-21T10:19:50.161Z,23.98
2023-04-21T10:22:28.060Z,24.42
2023-04-21T10:25:00.537Z,24.35
2023-04-21T10:27:41.419Z,24.40
2023-04-21T10:30:26.780Z,23.48
2023-04-21T10:33:05.069Z,24.17
2023-04-21T10:36:01.327Z,23.39
2023-04-21T10:38:57.962Z,23.80
2023-04-21T10:41:32.767Z,23.16
2023-04-21T10:44:16.607Z,21.98
2023-04-21T10:49:30.884Z,21.16
2023-04-21T10:52:03.673Z,22.03
2023-04-21T10:54:53.969Z,22.33
2023-04-21T10:57:21.387Z,23.16
2023-04-21T10:59:49.851Z,23.01
2023-04-21T11:02:18.882Z,23.32
2023-04-21T11:04:51.085Z,23.91
2023-04-21T11:07:25.908Z,23.48
2023-04-21T11:10:01.778Z,23.83
2023-04-21T11:12:32.853Z,23.53
2023-04-21T11:15:03.293Z,23.44
2023-04-21T11:17:30.871Z,23.25
2023-04-21T11:19:57.804Z,24.08
2023-04-21T11:22:26.631Z,22.73
2023-04-21T11:24:58.091Z,23.46
2023-04-21T11:27:27.761Z,23.64
2023-04-21T11:29:54.729Z,23.38
2023-04-21T11:32:21.890Z,23.53
2023-04-21T11:34:48.903Z,23.87
2023-04-21T11:37:17.627Z,24.00
2023-04-21T11:39:45.052Z,23.91
2023-04-21T11:42:12.396Z,23.54
2023-04-21T11:44:41.613Z,22.00
2023-04-21T11:47:19.165Z,22.37
2023-04-21T11:49:51.780Z,22.75
2023-04-21T11:52:25.402Z,23.05
2023-04-21T11:55:07.578Z,23.54
2023-04-21T11:57:34.786Z,22.51
2023-04-21T12:00:03.599Z,22.53
2023-04-21T12:02:32.763Z,22.32
2023-04-21T12:05:04.870Z,21.88
2023-04-21T12:07:56.417Z,20.41
2023-04-21T12:10:23.537Z,21.10
2023-04-21T12:12:51.552Z,21.19
2023-04-21T12:15:23.460Z,20.20
2023-04-21T12:17:52.520Z,20.43
2023-04-21T12:20:21.279Z,19.30
2023-04-21T12:22:49.356Z,19.91
2023-04-21T12:25:16.541Z,19.92
2023-04-21T12:27:54.411Z,18.99
2023-04-21T12:30:21.842Z,19.31
2023-04-21T12:32:49.404Z,19.02
2023-04-21T12:35:16.486Z,19.14
2023-04-21T12:37:43.474Z,19.34
2023-04-21T12:40:10.924Z,18.84
2023-04-21T12:42:38.470Z,18.96
2023-04-21T12:45:06.978Z,19.24
2023-04-21T12:47:35.354Z,19.35
2023-04-21T12:50:02.605Z,19.25
2023-04-21T12:52:29.624Z,19.54
2023-04-21T12:54:56.537Z,19.31
2023-04-21T12:57:23.637Z,19.26
2023-04-21T12:59:50.647Z,19.65
2023-04-21T13:02:18.118Z,19.35
2023-04-21T13:04:45.343Z,19.56
2023-04-21T13:07:12.904Z,20.03
2023-04-21T13:09:40.357Z,19.94
2023-04-21T13:12:07.909Z,19.78
2023-04-21T13:14:35.182Z,20.11
2023-04-21T13:17:04.157Z,20.28
2023-04-21T13:19:32.024Z,20.24
2023-04-21T13:21:59.771Z,20.62
2023-04-21T13:24:27.232Z,21.32
2023-04-21T13:26:55.260Z,20.94
2023-04-21T13:29:22.336Z,20.89
2023-04-21T13:31:49.568Z,20.82
2023-04-21T13:34:16.984Z,20.86
2023-04-21T13:36:44.065Z,22.17
2023-04-21T13:39:11.516Z,22.30
2023-04-21T13:41:38.786Z,21.74
2023-04-21T13:44:05.970Z,22.03
2023-04-21T13:46:34.020Z,21.21
2023-04-21T13:49:01.374Z,20.81
2023-04-21T13:51:31.278Z,20.45
2023-04-21T13:53:58.820Z,20.94
2023-04-21T13:56:26.144Z,20.67
2023-04-21T13:58:53.843Z,20.54
2023-04-21T14:01:21.790Z,20.78
2023-04-21T14:03:49.431Z,20.81
2023-04-21T14:06:16.804Z,20.69
2023-04-21T14:08:43.809Z,20.57
2023-04-21T14:11:10.810Z,20.76
2023-04-21T14:13:45.464Z,20.64
2023-04-21T14:16:19.316Z,21.07
2023-04-21T14:18:47.482Z,21.22
2023-04-21T14:21:14.511Z,20.57
2023-04-21T14:23:41.516Z,20.64
2023-04-21T14:26:08.593Z,20.24
2023-04-21T14:28:35.899Z,20.15
2023-04-21T14:31:03.016Z,20.07
2023-04-21T14:33:30.315Z,19.98
2023-04-21T14:35:57.316Z,20.30
2023-04-21T14:38:24.703Z,20.50
2023-04-21T14:40:54.752Z,20.33
2023-04-21T14:43:22.068Z,20.72
2023-04-21T14:45:49.214Z,20.90
2023-04-21T14:48:16.732Z,21.12
2023-04-21T14:50:44.188Z,20.34
2023-04-21T14:53:11.494Z,20.11
2023-04-21T14:55:38.422Z,20.51
2023-04-21T14:58:05.375Z,20.48
2023-04-21T15:00:32.966Z,20.61
2023-04-21T15:03:00.171Z,20.21
2023-04-21T15:05:27.304Z,20.48
2023-04-21T15:07:54.294Z,20.40
2023-04-21T15:10:21.301Z,20.09
2023-04-21T15:12:48.409Z,20.32
2023-04-21T15:15:15.347Z,20.02
2023-04-21T15:17:42.323Z,20.20
2023-04-21T15:20:10.461Z,20.38
2023-04-21T15:22:37.834Z,20.15
2023-04-21T15:25:05.186Z,20.06
2023-04-21T15:27:32.116Z,19.84
2023-04-21T15:29:59.088Z,19.84
2023-04-21T15:32:26.566Z,20.14
2023-04-21T15:34:53.644Z,20.54
2023-04-21T15:37:24.248Z,20.27
2023-04-21T15:39:52.532Z,19.71
2023-04-21T15:42:19.580Z,20.02
2023-04-21T15:44:47.204Z,19.77
2023-04-21T15:47:16.690Z,19.70
2023-04-21T15:49:43.706Z,19.67
2023-04-21T15:52:11.344Z,20.04
2023-04-21T15:54:38.840Z,20.01
2023-04-21T15:57:06.467Z,19.59
2023-04-21T15:59:33.438Z,19.67
2023-04-21T16:02:00.551Z,19.71
2023-04-21T16:04:28.058Z,19.79
2023-04-21T16:06:55.180Z,19.37
2023-04-21T16:09:22.716Z,19.45
2023-04-21T16:11:52.572Z,19.38
2023-04-21T16:14:19.700Z,19.26
2023-04-21T16:16:46.860Z,19.39
2023-04-21T16:19:14.029Z,19.44
2023-04-21T16:21:42.267Z,19.51
2023-04-21T16:24:09.374Z,19.44
2023-04-21T16:26:36.978Z,19.44
2023-04-21T16:29:04.161Z,19.20
2023-04-21T16:31:31.862Z,19.25
2023-04-21T16:34:00.466Z,19.50
2023-04-21T16:36:28.695Z,19.25
2023-04-21T16:38:56.348Z,19.27
2023-04-21T16:41:23.819Z,19.36
2023-04-21T16:43:51.016Z,19.18
2023-04-21T16:46:18.474Z,19.22
2023-04-21T16:48:45.710Z,19.43
2023-04-21T16:51:12.833Z,19.48
2023-04-21T16:53:40.447Z,19.52
2023-04-21T16:56:07.761Z,19.26
2023-04-21T16:58:34.806Z,19.25
2023-04-21T17:01:01.889Z,19.46
2023-04-21T17:03:29.505Z,19.63
2023-04-21T17:05:56.559Z,19.56
2023-04-21T17:08:23.533Z,19.82
2023-04-21T17:10:50.681Z,19.68
2023-04-21T17:13:17.655Z,19.74
2023-04-21T17:15:44.614Z,20.15
2023-04-21T17:18:11.729Z,20.00
2023-04-21T17:20:39.065Z,20.23
2023-04-21T17:23:06.291Z,20.36
2023-04-21T17:25:33.330Z,20.35
2023-04-21T17:28:00.313Z,20.38
2023-04-21T17:30:27.278Z,20.47
2023-04-21T17:33:04.228Z,20.42
2023-04-21T17:35:46.054Z,20.49
2023-04-21T17:38:19.352Z,20.49
2023-04-21T17:40:46.268Z,20.50
2023-04-21T17:43:13.431Z,20.47
2023-04-21T17:45:40.646Z,20.40
2023-04-21T17:48:07.709Z,20.37
2023-04-21T17:50:34.668Z,20.34
2023-04-21T17:53:01.718Z,20.25
2023-04-21T17:55:28.738Z,20.18
2023-04-21T17:57:55.709Z,20.10
2023-04-21T18:00:22.629Z,20.06
2023-04-21T18:02:49.533Z,19.95
2023-04-21T18:05:17.349Z,19.88
2023-04-21T18:07:44.521Z,19.79
2023-04-21T18:10:11.617Z,19.71
2023-04-21T18:12:38.562Z,19.67
2023-04-21T18:15:05.959Z,19.65
2023-04-21T18:17:32.904Z,19.53
2023-04-21T18:19:59.822Z,19.41
2023-04-21T18:22:27.028Z,19.37
2023-04-21T18:24:54.202Z,19.28
2023-04-21T18:27:21.311Z,19.17
2023-04-21T18:29:48.250Z,19.07
2023-04-21T18:32:15.195Z,18.98
2023-04-21T18:34:42.325Z,19.04
2023-04-21T18:37:09.386Z,18.97
2023-04-21T18:39:36.537Z,18.81
2023-04-21T18:42:03.728Z,18.78
2023-04-21T18:44:30.799Z,18.61
2023-04-21T18:46:58.563Z,18.59
2023-04-21T18:49:25.545Z,18.66
2023-04-21T18:51:52.541Z,18.35
2023-04-21T18:54:19.403Z,18.33
2023-04-21T18:56:46.854Z,18.06
2023-04-21T18:59:13.925Z,17.83
2023-04-21T19:01:41.877Z,17.91
2023-04-21T19:04:11.857Z,17.58
2023-04-21T19:06:38.872Z,17.69
2023-04-21T19:09:05.819Z,17.20
2023-04-21T19:11:33.673Z,17.03
2023-04-21T19:14:00.670Z,17.11
2023-04-21T19:16:28.599Z,17.11
2023-04-21T19:18:55.641Z,17.07
2023-04-21T19:21:22.652Z,17.08
2023-04-21T19:23:49.629Z,17.03
2023-04-21T19:26:16.709Z,17.10
2023-04-21T19:28:44.133Z,16.84
2023-04-21T19:31:11.284Z,16.71
2023-04-21T19:33:38.272Z,16.59
2023-04-21T19:36:05.861Z,16.40
2023-04-21T19:38:33.754Z,16.38
2023-04-21T19:41:00.730Z,16.37
2023-04-21T19:43:27.671Z,16.40
2023-04-21T19:45:54.726Z,16.28
2023-04-21T19:48:21.867Z,16.20
2023-04-21T19:50:48.819Z,16.17
2023-04-21T19:53:15.933Z,16.20
2023-04-21T19:55:43.824Z,16.16
2023-04-21T19:58:10.805Z,16.08
2023-04-21T20:00:37.976Z,16.19
2023-04-21T20:03:07.216Z,16.11
2023-04-21T20:05:34.338Z,15.97
2023-04-21T20:08:01.497Z,15.98
2023-04-21T20:10:28.448Z,15.92
2023-04-21T20:12:55.354Z,15.85
2023-04-21T20:15:22.822Z,15.83
2023-04-21T20:17:50.243Z,15.73
2023-04-21T20:20:17.784Z,15.50
2023-04-21T20:22:44.898Z,14.99
2023-04-21T20:25:13.079Z,14.88
2023-04-21T20:27:40.283Z,14.92
2023-04-21T20:30:08.215Z,14.75
2023-04-21T20:32:35.331Z,14.96
2023-04-21T20:35:02.449Z,14.94
2023-04-21T20:37:29.890Z,14.92
2023-04-21T20:39:57.394Z,14.93
2023-04-21T20:42:24.355Z,14.93
2023-04-21T20:44:51.376Z,14.91
2023-04-21T20:47:18.405Z,14.90
2023-04-21T20:49:47.538Z,14.92
2023-04-21T20:52:15.468Z,14.84
2023-04-21T20:54:42.488Z,14.73
2023-04-21T20:57:10.488Z,14.82
2023-04-21T20:59:37.593Z,14.57
2023-04-21T21:02:05.219Z,14.56
2023-04-21T21:04:32.351Z,14.37
2023-04-21T21:06:59.814Z,14.21
2023-04-21T21:09:26.776Z,14.25
2023-04-21T21:11:53.866Z,14.30
2023-04-21T21:14:20.755Z,14.54
2023-04-21T21:16:47.770Z,14.46
2023-04-21T21:19:15.076Z,14.45
2023-04-21T21:21:42.110Z,14.25
2023-04-21T21:24:09.060Z,14.35
2023-04-21T21:26:36.024Z,14.23
2023-04-21T21:29:03.321Z,14.35
2023-04-21T21:31:30.256Z,14.33
2023-04-21T21:33:58.412Z,14.14
2023-04-21T21:36:25.556Z,14.11
2023-04-21T21:38:52.461Z,14.22
2023-04-21T21:41:19.908Z,13.82
2023-04-21T21:43:47.069Z,14.08
2023-04-21T21:46:14.058Z,14.22
2023-04-21T21:48:42.742Z,14.05
2023-04-21T21:51:09.704Z,13.97
2023-04-21T21:53:36.636Z,13.89
2023-04-21T21:56:03.637Z,13.55
2023-04-21T21:58:30.992Z,13.53
2023-04-21T22:00:58.229Z,13.53
2023-04-21T22:03:25.826Z,13.39
2023-04-21T22:05:53.012Z,13.26
2023-04-21T22:08:19.963Z,13.21
2023-04-21T22:10:46.945Z,13.13
2023-04-21T22:13:13.892Z,12.71
2023-04-21T22:15:41.492Z,12.81
2023-04-21T22:18:09.982Z,12.80
2023-04-21T22:20:37.122Z,13.09
2023-04-21T22:23:04.346Z,13.08
2023-04-21T22:25:31.453Z,13.22
2023-04-21T22:27:58.409Z,13.31
2023-04-21T22:30:26.072Z,13.23
2023-04-21T22:32:53.014Z,13.16
2023-04-21T22:35:20.192Z,13.15
2023-04-21T22:37:47.083Z,12.96
2023-04-21T22:40:14.163Z,13.12
2023-04-21T22:42:41.212Z,13.23
2023-04-21T22:45:08.683Z,13.29
2023-04-21T22:47:35.914Z,13.20
2023-04-21T22:50:04.574Z,13.03
2023-04-21T22:52:31.579Z,12.61
2023-04-21T22:54:58.560Z,12.94
2023-04-21T22:57:25.943Z,12.76
2023-04-21T22:59:52.981Z,12.71
2023-04-21T23:02:20.014Z,12.72
2023-04-21T23:04:46.983Z,12.62
2023-04-21T23:07:13.926Z,12.73
2023-04-21T23:09:40.971Z,12.65
2023-04-21T23:12:08.549Z,12.79
2023-04-21T23:14:35.578Z,12.47
2023-04-21T23:17:02.566Z,12.21
2023-04-21T23:19:29.702Z,12.54
2023-04-21T23:21:56.733Z,12.52
2023-04-21T23:24:23.589Z,12.67
2023-04-21T23:26:50.746Z,12.70
2023-04-21T23:29:17.858Z,12.70
2023-04-21T23:31:45.138Z,12.77
2023-04-21T23:34:12.125Z,12.86
2023-04-21T23:36:39.013Z,12.61
2023-04-21T23:39:06.435Z,12.63
2023-04-21T23:41:33.506Z,12.63
2023-04-21T23:44:00.521Z,12.80
2023-04-21T23:46:27.554Z,12.68
2023-04-21T23:48:54.733Z,12.31
2023-04-21T23:51:22.248Z,12.55
2023-04-21T23:53:49.358Z,12.44
2023-04-21T23:56:16.585Z,12.30
2023-04-21T23:58:43.563Z,12.30
